createdAt,value
2022-12-12T00:00:27.401Z,1.40
2022-12-12T00:01:45.120Z,1.65
2022-12-12T00:02:47.029Z,1.63
2022-12-12T00:03:48.989Z,1.48
2022-12-12T00:04:50.881Z,1.58
2022-12-12T00:05:55.567Z,1.10
2022-12-12T00:06:57.019Z,1.33
2022-12-12T00:07:58.672Z,1.17
2022-12-12T00:09:00.366Z,1.33
2022-12-12T00:10:02.102Z,1.50
2022-12-12T00:11:04.605Z,1.63
2022-12-12T00:12:06.374Z,1.33
2022-12-12T00:13:08.043Z,1.55
2022-12-12T00:14:09.605Z,1.33
2022-12-12T00:15:11.512Z,1.50
2022-12-12T00:16:13.578Z,2.03
2022-12-12T00:17:15.010Z,1.60
2022-12-12T00:18:16.400Z,1.10
2022-12-12T00:19:17.920Z,1.20
2022-12-12T00:20:19.552Z,1.27
2022-12-12T00:21:23.990Z,1.27
2022-12-12T00:22:26.083Z,1.10
2022-12-12T00:23:27.504Z,1.30
2022-12-12T00:24:29.104Z,1.10
2022-12-12T00:25:30.571Z,1.33
2022-12-12T00:26:34.920Z,1.85
2022-12-12T00:27:36.939Z,1.88
2022-12-12T00:28:38.325Z,1.63
2022-12-12T00:29:39.807Z,1.35
2022-12-12T00:30:41.403Z,1.20
2022-12-12T00:31:43.206Z,1.20
2022-12-12T00:32:44.860Z,1.40
2022-12-12T00:33:48.687Z,1.35
2022-12-12T00:34:50.174Z,1.20
2022-12-12T00:35:53.903Z,1.30
2022-12-12T00:36:55.298Z,1.40
2022-12-12T00:37:56.743Z,1.42
2022-12-12T00:38:59.038Z,1.75
2022-12-12T00:40:00.593Z,2.15
2022-12-12T00:41:02.525Z,1.67
2022-12-12T00:42:04.136Z,1.25
2022-12-12T00:43:05.873Z,1.30
2022-12-12T00:44:07.539Z,1.15
2022-12-12T00:45:11.077Z,1.55
2022-12-12T00:46:17.820Z,1.75
2022-12-12T00:47:19.457Z,1.27
2022-12-12T00:48:21.133Z,1.02
2022-12-12T00:49:22.876Z,1.60
2022-12-12T00:50:24.320Z,1.02
2022-12-12T00:51:27.451Z,1.13
2022-12-12T00:52:29.810Z,1.60
2022-12-12T00:53:31.394Z,1.80
2022-12-12T00:54:33.139Z,1.27
2022-12-12T00:55:34.628Z,1.50
2022-12-12T00:56:36.212Z,1.50
2022-12-12T00:57:37.932Z,1.38
2022-12-12T00:58:40.025Z,1.40
2022-12-12T00:59:41.768Z,1.40
2022-12-12T01:00:43.821Z,1.20
2022-12-12T01:01:46.511Z,1.25
2022-12-12T01:02:48.585Z,1.13
2022-12-12T01:03:50.778Z,1.35
2022-12-12T01:04:52.353Z,1.30
2022-12-12T01:05:54.367Z,1.30
2022-12-12T01:06:56.348Z,0.90
2022-12-12T01:07:58.855Z,1.30
2022-12-12T01:09:00.512Z,1.40
2022-12-12T01:10:02.272Z,1.73
2022-12-12T01:11:04.364Z,1.13
2022-12-12T01:12:05.821Z,1.58
2022-12-12T01:13:07.439Z,1.27
2022-12-12T01:14:08.860Z,1.38
2022-12-12T01:15:11.523Z,1.42
2022-12-12T01:16:13.295Z,1.45
2022-12-12T01:17:14.806Z,1.30
2022-12-12T01:18:17.280Z,1.58
2022-12-12T01:19:18.741Z,1.27
2022-12-12T01:20:23.603Z,1.65
2022-12-12T01:21:25.340Z,1.40
2022-12-12T01:22:26.774Z,1.48
2022-12-12T01:23:29.085Z,1.10
2022-12-12T01:24:30.844Z,1.55
2022-12-12T01:25:32.555Z,2.20
2022-12-12T01:26:34.456Z,1.25
2022-12-12T01:27:36.027Z,1.23
2022-12-12T01:28:38.191Z,1.20
2022-12-12T01:29:39.629Z,1.55
2022-12-12T01:30:41.296Z,1.00
2022-12-12T01:31:42.749Z,1.17
2022-12-12T01:32:45.361Z,1.10
2022-12-12T01:33:47.380Z,1.27
2022-12-12T01:34:49.001Z,1.40
2022-12-12T01:35:50.754Z,1.00
2022-12-12T01:36:52.409Z,1.23
2022-12-12T01:37:54.638Z,1.00
2022-12-12T01:38:57.100Z,1.60
2022-12-12T01:39:58.748Z,1.10
2022-12-12T01:41:00.201Z,1.30
2022-12-12T01:42:01.884Z,1.20
2022-12-12T01:43:10.282Z,1.25
2022-12-12T01:44:57.087Z,1.88
2022-12-12T01:45:58.646Z,1.20
2022-12-12T01:47:00.105Z,1.10
2022-12-12T01:48:05.221Z,1.55
2022-12-12T01:49:24.986Z,1.10
2022-12-12T01:50:26.707Z,0.95
2022-12-12T01:51:29.592Z,1.30
2022-12-12T01:52:46.716Z,1.75
2022-12-12T01:53:52.227Z,1.30
2022-12-12T01:54:58.289Z,1.60
2022-12-12T01:56:02.416Z,1.20
2022-12-12T01:57:06.988Z,1.20
2022-12-12T01:58:08.537Z,1.77
2022-12-12T01:59:14.107Z,1.50
2022-12-12T02:00:16.223Z,1.60
2022-12-12T02:01:20.444Z,1.27
2022-12-12T02:02:22.093Z,1.35
2022-12-12T02:03:23.791Z,1.08
2022-12-12T02:04:28.085Z,1.00
2022-12-12T02:05:56.036Z,1.52
2022-12-12T02:06:57.628Z,1.55
2022-12-12T02:08:02.110Z,1.60
2022-12-12T02:09:08.643Z,1.60
2022-12-12T02:10:10.681Z,1.17
2022-12-12T02:11:12.999Z,1.23
2022-12-12T02:12:15.096Z,1.20
2022-12-12T02:13:24.236Z,1.60
2022-12-12T02:14:47.745Z,1.50
2022-12-12T02:15:58.643Z,2.15
2022-12-12T02:17:21.068Z,1.30
2022-12-12T02:18:40.375Z,1.10
2022-12-12T02:20:19.058Z,1.45
2022-12-12T02:21:36.621Z,1.10
2022-12-12T02:22:57.227Z,1.50
2022-12-12T02:24:29.760Z,1.52
2022-12-12T02:25:37.492Z,2.00
2022-12-12T02:27:08.083Z,1.23
2022-12-12T02:28:36.583Z,1.40
2022-12-12T02:29:50.476Z,1.02
2022-12-12T02:31:14.002Z,1.10
2022-12-12T02:32:50.418Z,1.65
2022-12-12T02:34:28.282Z,1.38
2022-12-12T02:35:36.040Z,1.55
2022-12-12T02:37:05.302Z,1.30
2022-12-12T02:38:22.747Z,1.30
2022-12-12T02:39:54.436Z,1.27
2022-12-12T02:41:14.344Z,1.52
2022-12-12T02:42:30.964Z,1.40
2022-12-12T02:43:45.413Z,1.00
2022-12-12T02:45:02.376Z,1.10
2022-12-12T02:46:24.245Z,1.35
2022-12-12T02:47:31.577Z,0.95
2022-12-12T02:48:56.253Z,1.13
2022-12-12T02:50:05.424Z,1.20
2022-12-12T02:51:10.749Z,1.38
2022-12-12T02:52:12.960Z,1.20
2022-12-12T02:53:19.023Z,1.20
2022-12-12T02:54:22.386Z,1.27
2022-12-12T02:55:23.812Z,0.95
2022-12-12T02:56:58.804Z,1.30
2022-12-12T02:58:00.982Z,1.33
2022-12-12T02:59:02.378Z,1.30
2022-12-12T03:00:15.624Z,1.38
2022-12-12T03:01:35.782Z,1.40
2022-12-12T03:03:35.028Z,1.55
2022-12-12T03:05:00.872Z,1.70
2022-12-12T03:06:52.542Z,1.92
2022-12-12T03:08:18.405Z,1.20
2022-12-12T03:09:30.940Z,1.73
2022-12-12T03:10:56.774Z,1.60
2022-12-12T03:12:09.659Z,2.35
2022-12-12T03:13:32.320Z,1.17
2022-12-12T03:15:02.240Z,1.30
2022-12-12T03:16:25.204Z,1.40
2022-12-12T03:18:00.666Z,1.35
2022-12-12T03:19:23.615Z,1.02
2022-12-12T03:20:33.203Z,0.90
2022-12-12T03:22:07.629Z,1.20
2022-12-12T03:23:18.430Z,1.23
2022-12-12T03:24:48.577Z,1.35
2022-12-12T03:26:08.243Z,1.30
2022-12-12T03:27:16.855Z,1.65
2022-12-12T03:28:23.017Z,1.25
2022-12-12T03:29:38.450Z,1.60
2022-12-12T03:30:44.083Z,1.20
2022-12-12T03:31:49.608Z,1.23
2022-12-12T03:33:15.715Z,1.50
2022-12-12T03:34:22.124Z,1.40
2022-12-12T03:35:28.773Z,1.10
2022-12-12T03:36:36.605Z,1.33
2022-12-12T03:37:43.601Z,1.52
2022-12-12T03:38:57.216Z,1.95
2022-12-12T03:40:10.043Z,1.92
2022-12-12T03:41:20.398Z,1.85
2022-12-12T03:42:36.855Z,1.90
2022-12-12T03:43:48.781Z,1.70
2022-12-12T03:44:57.076Z,1.40
2022-12-12T03:46:06.249Z,1.17
2022-12-12T03:47:15.838Z,2.10
2022-12-12T03:48:29.580Z,2.55
2022-12-12T03:49:35.713Z,1.45
2022-12-12T03:50:51.559Z,1.60
2022-12-12T03:52:03.077Z,1.92
2022-12-12T03:53:27.241Z,1.52
2022-12-12T03:54:40.708Z,1.95
2022-12-12T03:55:50.388Z,1.83
2022-12-12T03:57:04.009Z,1.88
2022-12-12T03:58:29.044Z,1.92
2022-12-12T03:59:57.527Z,1.40
2022-12-12T04:01:00.959Z,2.03
2022-12-12T04:02:08.247Z,1.55
2022-12-12T04:03:19.602Z,1.75
2022-12-12T04:04:27.627Z,1.92
2022-12-12T04:05:37.490Z,1.13
2022-12-12T04:06:47.647Z,1.45
2022-12-12T04:08:10.114Z,1.45
2022-12-12T04:09:33.732Z,1.80
2022-12-12T04:11:17.512Z,1.88
2022-12-12T04:12:58.610Z,2.25
2022-12-12T04:14:22.373Z,1.00
2022-12-12T04:15:46.856Z,1.65
2022-12-12T04:17:00.611Z,1.20
2022-12-12T04:18:35.196Z,1.33
2022-12-12T04:20:07.955Z,1.40
2022-12-12T04:21:54.933Z,2.00
2022-12-12T04:23:28.461Z,1.15
2022-12-12T04:24:50.635Z,1.13
2022-12-12T04:26:28.827Z,1.40
2022-12-12T04:27:39.589Z,1.30
2022-12-12T04:28:48.864Z,1.75
2022-12-12T04:30:01.234Z,2.10
2022-12-12T04:31:05.015Z,2.47
2022-12-12T04:32:30.709Z,1.75
2022-12-12T04:33:41.618Z,1.48
2022-12-12T04:35:00.113Z,1.40
2022-12-12T04:36:03.742Z,1.60
2022-12-12T04:37:07.822Z,1.20
2022-12-12T04:38:21.896Z,1.20
2022-12-12T04:39:24.366Z,1.63
2022-12-12T04:40:30.163Z,1.63
2022-12-12T04:41:34.972Z,1.27
2022-12-12T04:42:42.150Z,1.33
2022-12-12T04:43:47.619Z,1.33
2022-12-12T04:44:52.126Z,1.50
2022-12-12T04:45:57.795Z,1.10
2022-12-12T04:47:01.105Z,1.60
2022-12-12T04:48:05.979Z,1.65
2022-12-12T04:49:16.618Z,1.42
2022-12-12T04:50:20.941Z,1.50
2022-12-12T04:51:33.060Z,2.00
2022-12-12T04:52:35.296Z,1.85
2022-12-12T04:53:43.120Z,1.80
2022-12-12T04:55:12.687Z,2.00
2022-12-12T04:56:19.628Z,2.33
2022-12-12T04:57:28.028Z,2.10
2022-12-12T04:58:29.582Z,2.50
2022-12-12T04:59:31.410Z,2.72
2022-12-12T05:00:47.759Z,1.90
2022-12-12T05:01:53.888Z,1.60
2022-12-12T05:03:15.113Z,1.70
2022-12-12T05:04:25.191Z,2.50
2022-12-12T05:05:29.760Z,1.90
2022-12-12T05:06:38.819Z,2.60
2022-12-12T05:07:49.454Z,2.78
2022-12-12T05:08:54.300Z,2.63
2022-12-12T05:09:58.224Z,2.20
2022-12-12T05:11:02.859Z,2.65
2022-12-12T05:12:04.476Z,2.10
2022-12-12T05:13:05.871Z,1.88
2022-12-12T05:14:11.114Z,3.08
2022-12-12T05:15:13.916Z,2.75
2022-12-12T05:16:27.082Z,1.98
2022-12-12T05:17:35.020Z,2.67
2022-12-12T05:18:36.907Z,1.65
2022-12-12T05:19:38.319Z,3.10
2022-12-12T05:20:40.034Z,2.95
2022-12-12T05:21:41.725Z,2.33
2022-12-12T05:22:43.325Z,1.95
2022-12-12T05:23:44.984Z,3.70
2022-12-12T05:24:46.508Z,2.58
2022-12-12T05:25:47.928Z,3.08
2022-12-12T05:26:49.739Z,2.38
2022-12-12T05:27:51.412Z,2.90
2022-12-12T05:28:53.184Z,3.75
2022-12-12T05:29:54.612Z,2.40
2022-12-12T05:30:56.360Z,2.65
2022-12-12T05:31:57.903Z,2.47
2022-12-12T05:32:59.284Z,3.45
2022-12-12T05:34:00.963Z,2.10
2022-12-12T05:35:02.550Z,3.15
2022-12-12T05:36:04.099Z,2.90
2022-12-12T05:37:05.763Z,2.22
2022-12-12T05:38:07.266Z,2.53
2022-12-12T05:39:08.709Z,2.83
2022-12-12T05:40:13.016Z,1.70
2022-12-12T05:41:15.409Z,2.35
2022-12-12T05:42:16.858Z,2.33
2022-12-12T05:43:18.294Z,2.22
2022-12-12T05:44:19.917Z,2.40
2022-12-12T05:45:21.382Z,2.05
2022-12-12T05:46:22.810Z,2.17
2022-12-12T05:47:24.598Z,2.60
2022-12-12T05:48:26.401Z,2.53
2022-12-12T05:49:28.062Z,2.53
2022-12-12T05:50:29.774Z,2.15
2022-12-12T05:51:31.237Z,2.53
2022-12-12T05:52:32.971Z,2.05
2022-12-12T05:53:42.567Z,3.17
2022-12-12T05:54:44.849Z,1.80
2022-12-12T05:55:46.631Z,2.67
2022-12-12T05:56:48.027Z,2.70
2022-12-12T05:57:49.443Z,2.33
2022-12-12T05:58:50.888Z,2.30
2022-12-12T05:59:52.286Z,2.30
2022-12-12T06:00:57.249Z,2.65
2022-12-12T06:02:01.546Z,2.90
2022-12-12T06:03:03.483Z,2.50
2022-12-12T06:04:05.572Z,3.60
2022-12-12T06:05:07.796Z,2.97
2022-12-12T06:06:09.300Z,3.75
2022-12-12T06:07:11.169Z,3.30
2022-12-12T06:08:12.610Z,2.05
2022-12-12T06:09:14.545Z,3.30
2022-12-12T06:10:17.228Z,2.10
2022-12-12T06:11:18.827Z,2.65
2022-12-12T06:12:20.176Z,2.08
2022-12-12T06:13:21.988Z,1.90
2022-12-12T06:14:23.577Z,2.25
2022-12-12T06:15:25.012Z,1.70
2022-12-12T06:16:26.679Z,1.80
2022-12-12T06:17:32.930Z,2.25
2022-12-12T06:18:34.933Z,2.55
2022-12-12T06:19:36.566Z,2.28
2022-12-12T06:20:38.520Z,1.65
2022-12-12T06:21:41.312Z,1.48
2022-12-12T06:22:42.814Z,2.25
2022-12-12T06:23:44.653Z,2.45
2022-12-12T06:24:46.334Z,1.63
2022-12-12T06:25:50.551Z,2.70
2022-12-12T06:26:52.254Z,1.83
2022-12-12T06:27:53.818Z,1.95
2022-12-12T06:28:56.288Z,2.08
2022-12-12T06:29:57.756Z,2.05
2022-12-12T06:30:59.220Z,1.73
2022-12-12T06:32:01.004Z,2.10
2022-12-12T06:33:02.424Z,2.05
2022-12-12T06:34:04.114Z,2.08
2022-12-12T06:35:05.898Z,2.40
2022-12-12T06:36:23.840Z,2.85
2022-12-12T06:37:25.503Z,2.30
2022-12-12T06:38:27.337Z,2.40
2022-12-12T06:39:28.815Z,2.08
2022-12-12T06:40:30.260Z,2.25
2022-12-12T06:41:32.515Z,2.28
2022-12-12T06:42:34.248Z,2.92
2022-12-12T06:43:36.021Z,2.38
2022-12-12T06:44:37.388Z,2.25
2022-12-12T06:45:39.076Z,1.55
2022-12-12T06:46:40.470Z,2.65
2022-12-12T06:47:41.955Z,2.83
2022-12-12T06:48:44.235Z,2.45
2022-12-12T06:49:45.647Z,2.05
2022-12-12T06:50:47.093Z,1.90
2022-12-12T06:51:48.885Z,2.20
2022-12-12T06:52:50.312Z,2.00
2022-12-12T06:53:52.977Z,3.25
2022-12-12T06:54:54.450Z,1.88
2022-12-12T06:55:55.858Z,1.60
2022-12-12T06:56:57.709Z,2.05
2022-12-12T06:57:59.124Z,1.40
2022-12-12T06:59:01.005Z,2.22
2022-12-12T07:00:04.023Z,2.67
2022-12-12T07:01:06.596Z,2.20
2022-12-12T07:02:11.282Z,1.65
2022-12-12T07:03:13.587Z,1.80
2022-12-12T07:04:15.395Z,1.70
2022-12-12T07:05:17.183Z,2.05
2022-12-12T07:06:21.509Z,2.13
2022-12-12T07:07:23.008Z,2.28
2022-12-12T07:08:24.510Z,1.77
2022-12-12T07:09:26.256Z,1.95
2022-12-12T07:10:27.901Z,1.65
2022-12-12T07:11:29.333Z,2.08
2022-12-12T07:12:30.980Z,1.80
2022-12-12T07:13:32.780Z,1.80
2022-12-12T07:14:34.258Z,1.90
2022-12-12T07:15:42.809Z,2.33
2022-12-12T07:16:44.217Z,1.70
2022-12-12T07:17:45.630Z,2.45
2022-12-12T07:18:48.186Z,2.00
2022-12-12T07:19:49.600Z,1.50
2022-12-12T07:20:51.096Z,1.67
2022-12-12T07:21:52.524Z,1.58
2022-12-12T07:22:53.904Z,2.13
2022-12-12T07:23:57.027Z,1.48
2022-12-12T07:24:58.644Z,1.60
2022-12-12T07:26:03.954Z,1.65
2022-12-12T07:27:05.797Z,2.08
2022-12-12T07:28:08.348Z,1.88
2022-12-12T07:29:09.725Z,1.40
2022-12-12T07:30:12.389Z,1.70
2022-12-12T07:31:17.507Z,2.08
2022-12-12T07:32:18.952Z,1.35
2022-12-12T07:33:21.703Z,1.83
2022-12-12T07:34:23.199Z,2.67
2022-12-12T07:35:25.518Z,1.80
2022-12-12T07:36:26.973Z,2.45
2022-12-12T07:37:28.458Z,1.77
2022-12-12T07:38:30.322Z,2.13
2022-12-12T07:39:32.687Z,2.30
2022-12-12T07:40:34.184Z,3.45
2022-12-12T07:41:36.149Z,3.05
2022-12-12T07:42:37.669Z,2.85
2022-12-12T07:43:43.706Z,2.72
2022-12-12T07:44:45.776Z,2.40
2022-12-12T07:45:48.244Z,4.03
2022-12-12T07:46:49.871Z,3.40
2022-12-12T07:47:52.170Z,3.38
2022-12-12T07:48:54.226Z,2.67
2022-12-12T07:49:56.025Z,2.05
2022-12-12T07:51:00.715Z,2.50
2022-12-12T07:52:02.923Z,2.83
2022-12-12T07:53:04.611Z,2.40
2022-12-12T07:54:06.653Z,1.90
2022-12-12T07:55:08.502Z,2.00
2022-12-12T07:56:12.271Z,2.05
2022-12-12T07:57:13.950Z,2.30
2022-12-12T07:58:15.603Z,2.45
2022-12-12T07:59:17.421Z,1.45
2022-12-12T08:00:19.841Z,2.13
2022-12-12T08:01:24.542Z,1.95
2022-12-12T08:02:26.242Z,2.20
2022-12-12T08:03:27.900Z,2.05
2022-12-12T08:04:29.378Z,1.40
2022-12-12T08:05:30.823Z,1.50
2022-12-12T08:06:32.492Z,1.60
2022-12-12T08:07:33.956Z,1.52
2022-12-12T08:08:35.593Z,2.17
2022-12-12T08:09:37.434Z,2.10
2022-12-12T08:10:40.331Z,2.50
2022-12-12T08:11:46.093Z,1.42
2022-12-12T08:12:48.038Z,1.60
2022-12-12T08:13:50.152Z,1.52
2022-12-12T08:14:51.577Z,1.42
2022-12-12T08:15:53.106Z,1.70
2022-12-12T08:16:54.798Z,1.85
2022-12-12T08:17:56.389Z,1.90
2022-12-12T08:18:59.007Z,2.08
2022-12-12T08:20:00.812Z,2.15
2022-12-12T08:21:02.355Z,2.10
2022-12-12T08:22:03.774Z,1.75
2022-12-12T08:23:05.426Z,2.15
2022-12-12T08:24:07.060Z,2.15
2022-12-12T08:25:08.745Z,2.78
2022-12-12T08:26:13.100Z,2.03
2022-12-12T08:27:15.930Z,2.45
2022-12-12T08:28:18.558Z,2.08
2022-12-12T08:29:20.392Z,2.42
2022-12-12T08:30:22.003Z,2.55
2022-12-12T08:31:23.842Z,3.08
2022-12-12T08:32:25.444Z,1.90
2022-12-12T08:33:27.287Z,2.45
2022-12-12T08:34:28.659Z,1.83
2022-12-12T08:35:31.359Z,2.25
2022-12-12T08:36:34.901Z,1.88
2022-12-12T08:37:36.384Z,1.85
2022-12-12T08:38:38.039Z,1.98
2022-12-12T08:39:39.854Z,2.35
2022-12-12T08:40:41.783Z,1.65
2022-12-12T08:41:47.921Z,1.80
2022-12-12T08:42:49.808Z,1.85
2022-12-12T08:43:51.689Z,1.80
2022-12-12T08:44:53.312Z,1.52
2022-12-12T08:46:01.565Z,1.40
2022-12-12T08:47:03.353Z,2.13
2022-12-12T08:48:06.785Z,2.38
2022-12-12T08:49:09.691Z,1.30
2022-12-12T08:50:12.015Z,1.55
2022-12-12T08:51:14.260Z,1.60
2022-12-12T08:52:15.694Z,2.33
2022-12-12T08:53:17.290Z,1.30
2022-12-12T08:54:18.829Z,1.45
2022-12-12T08:55:20.348Z,2.20
2022-12-12T08:56:23.758Z,1.50
2022-12-12T08:57:26.177Z,2.03
2022-12-12T08:58:27.715Z,1.50
2022-12-12T08:59:29.974Z,1.67
2022-12-12T09:00:31.374Z,1.50
2022-12-12T09:01:33.133Z,1.52
2022-12-12T09:02:36.644Z,2.10
2022-12-12T09:03:38.191Z,1.85
2022-12-12T09:04:39.717Z,1.45
2022-12-12T09:05:45.110Z,1.63
2022-12-12T09:06:46.562Z,1.55
2022-12-12T09:07:48.257Z,1.98
2022-12-12T09:08:50.144Z,1.40
2022-12-12T09:09:51.564Z,2.20
2022-12-12T09:10:52.947Z,1.40
2022-12-12T09:11:54.346Z,2.20
2022-12-12T09:12:56.289Z,1.85
2022-12-12T09:13:57.666Z,2.20
2022-12-12T09:14:59.052Z,2.25
2022-12-12T09:16:00.524Z,1.65
2022-12-12T09:17:02.216Z,1.80
2022-12-12T09:18:04.446Z,2.30
2022-12-12T09:19:05.974Z,1.30
2022-12-12T09:20:07.789Z,1.77
2022-12-12T09:21:09.493Z,2.83
2022-12-12T09:22:10.880Z,2.35
2022-12-12T09:23:12.292Z,1.30
2022-12-12T09:24:14.710Z,2.40
2022-12-12T09:25:16.365Z,1.90
2022-12-12T09:26:17.978Z,2.00
2022-12-12T09:27:19.573Z,1.80
2022-12-12T09:28:23.583Z,1.85
2022-12-12T09:29:25.184Z,1.80
2022-12-12T09:30:26.670Z,1.77
2022-12-12T09:31:28.060Z,1.65
2022-12-12T09:32:29.810Z,1.38
2022-12-12T09:33:31.870Z,1.90
2022-12-12T09:34:34.240Z,2.40
2022-12-12T09:35:35.882Z,2.10
2022-12-12T09:36:37.354Z,1.33
2022-12-12T09:37:39.325Z,1.60
2022-12-12T09:38:41.375Z,2.03
2022-12-12T09:39:43.500Z,1.95
2022-12-12T09:41:00.387Z,2.90
2022-12-12T09:42:19.774Z,3.13
2022-12-12T09:43:29.496Z,2.25
2022-12-12T09:44:31.628Z,2.00
2022-12-12T09:45:35.813Z,1.80
2022-12-12T09:46:47.578Z,1.73
2022-12-12T09:47:57.041Z,1.90
2022-12-12T09:49:12.420Z,2.50
2022-12-12T09:50:38.360Z,1.45
2022-12-12T09:51:46.877Z,2.17
2022-12-12T09:52:49.045Z,1.63
2022-12-12T09:53:51.517Z,1.92
2022-12-12T09:54:54.164Z,1.35
2022-12-12T09:55:55.718Z,2.03
2022-12-12T09:57:26.137Z,1.73
2022-12-12T09:58:56.944Z,1.60
2022-12-12T10:00:03.841Z,3.00
2022-12-12T10:01:28.853Z,2.63
2022-12-12T10:02:49.245Z,2.58
2022-12-12T10:04:10.406Z,2.80
2022-12-12T10:06:01.875Z,2.03
2022-12-12T10:07:26.911Z,1.92
2022-12-12T10:08:48.624Z,2.45
2022-12-12T10:10:24.219Z,1.90
2022-12-12T10:11:50.148Z,1.70
2022-12-12T10:12:52.910Z,2.58
2022-12-12T10:13:57.173Z,2.00
2022-12-12T10:15:04.620Z,2.05
2022-12-12T10:16:07.987Z,2.75
2022-12-12T10:17:19.044Z,2.53
2022-12-12T10:18:30.345Z,3.25
2022-12-12T10:19:37.715Z,3.05
2022-12-12T10:20:51.034Z,2.75
2022-12-12T10:21:56.756Z,2.45
2022-12-12T10:23:23.900Z,2.28
2022-12-12T10:24:29.557Z,2.30
2022-12-12T10:25:59.308Z,1.80
2022-12-12T10:27:12.971Z,2.17
2022-12-12T10:28:16.897Z,2.65
2022-12-12T10:29:20.260Z,3.30
2022-12-12T10:30:22.212Z,2.20
2022-12-12T10:31:47.520Z,2.90
2022-12-12T10:33:03.767Z,3.13
2022-12-12T10:34:23.746Z,3.13
2022-12-12T10:36:13.147Z,3.03
2022-12-12T10:37:25.101Z,3.10
2022-12-12T10:39:02.194Z,4.55
2022-12-12T10:40:31.186Z,3.47
2022-12-12T10:41:48.123Z,2.58
2022-12-12T10:42:55.184Z,3.28
2022-12-12T10:44:09.012Z,3.38
2022-12-12T10:45:45.254Z,2.45
2022-12-12T10:46:50.234Z,3.63
2022-12-12T10:47:51.900Z,2.65
2022-12-12T10:48:54.457Z,3.80
2022-12-12T10:50:23.313Z,3.50
2022-12-12T10:51:28.243Z,2.92
2022-12-12T10:52:29.741Z,2.63
2022-12-12T10:53:32.296Z,2.50
2022-12-12T10:54:42.881Z,2.45
2022-12-12T10:55:53.493Z,3.53
2022-12-12T10:57:16.528Z,3.30
2022-12-12T10:58:26.278Z,2.50
2022-12-12T10:59:28.940Z,3.55
2022-12-12T11:00:40.804Z,2.85
2022-12-12T11:03:45.935Z,2.58
2022-12-12T11:04:47.328Z,3.58
2022-12-12T11:05:49.680Z,2.70
2022-12-12T11:06:53.264Z,2.75
2022-12-12T11:08:07.538Z,2.92
2022-12-12T11:09:08.972Z,2.65
2022-12-12T11:10:26.859Z,2.55
2022-12-12T11:11:32.284Z,2.17
2022-12-12T11:12:35.005Z,4.63
2022-12-12T11:13:46.638Z,1.90
2022-12-12T11:14:50.887Z,2.45
2022-12-12T11:15:58.647Z,2.55
2022-12-12T11:17:02.916Z,2.78
2022-12-12T11:18:06.553Z,3.47
2022-12-12T11:19:23.907Z,2.13
2022-12-12T11:20:26.844Z,2.60
2022-12-12T11:21:31.270Z,1.98
2022-12-12T11:22:33.812Z,1.85
2022-12-12T11:23:40.339Z,2.42
2022-12-12T11:24:46.364Z,2.08
2022-12-12T11:25:58.737Z,2.47
2022-12-12T11:27:06.284Z,2.90
2022-12-12T11:28:19.532Z,2.88
2022-12-12T11:29:47.686Z,2.83
2022-12-12T11:30:52.718Z,2.28
2022-12-12T11:31:55.079Z,2.67
2022-12-12T11:32:57.240Z,2.05
2022-12-12T11:34:07.140Z,2.25
2022-12-12T11:35:22.484Z,1.90
2022-12-12T11:36:33.533Z,2.45
2022-12-12T11:37:48.513Z,3.47
2022-12-12T11:38:53.822Z,2.20
2022-12-12T11:39:56.833Z,2.40
2022-12-12T11:41:04.456Z,2.25
2022-12-12T11:42:17.118Z,2.33
2022-12-12T11:43:27.468Z,2.10
2022-12-12T11:44:36.752Z,2.47
2022-12-12T11:45:38.225Z,3.03
2022-12-12T11:46:39.665Z,2.95
2022-12-12T11:47:43.523Z,2.60
2022-12-12T11:48:47.635Z,2.85
2022-12-12T11:49:52.489Z,2.70
2022-12-12T11:50:53.872Z,2.35
2022-12-12T11:51:56.213Z,2.40
2022-12-12T11:53:01.626Z,3.22
2022-12-12T11:54:15.976Z,2.83
2022-12-12T11:55:26.026Z,1.70
2022-12-12T11:56:55.598Z,2.63
2022-12-12T11:58:14.003Z,4.03
2022-12-12T11:59:44.681Z,3.60
2022-12-12T12:00:53.984Z,2.25
2022-12-12T12:02:20.002Z,1.83
2022-12-12T12:03:36.855Z,3.63
2022-12-12T12:05:01.469Z,2.70
2022-12-12T12:06:26.139Z,2.35
2022-12-12T12:07:58.535Z,3.00
2022-12-12T12:09:12.179Z,3.80
2022-12-12T12:10:32.614Z,2.35
2022-12-12T12:11:54.621Z,2.85
2022-12-12T12:13:24.157Z,2.85
2022-12-12T12:14:44.400Z,4.50
2022-12-12T12:16:03.594Z,3.10
2022-12-12T12:17:18.335Z,2.53
2022-12-12T12:18:26.674Z,2.33
2022-12-12T12:19:45.778Z,3.33
2022-12-12T12:21:23.788Z,2.97
2022-12-12T12:22:49.871Z,2.80
2022-12-12T12:24:17.344Z,2.83
2022-12-12T12:25:28.481Z,3.03
2022-12-12T12:26:37.320Z,3.72
2022-12-12T12:28:00.590Z,3.58
2022-12-12T12:29:27.480Z,2.65
2022-12-12T12:30:43.087Z,2.83
2022-12-12T12:32:05.513Z,4.70
2022-12-12T12:33:45.128Z,2.47
2022-12-12T12:35:13.238Z,3.03
2022-12-12T12:36:29.384Z,2.95
2022-12-12T12:37:44.684Z,3.85
2022-12-12T12:38:55.002Z,3.55
2022-12-12T12:40:05.283Z,3.38
2022-12-12T12:41:50.988Z,3.92
2022-12-12T12:43:10.010Z,2.83
2022-12-12T12:44:27.757Z,2.85
2022-12-12T12:45:59.914Z,3.20
2022-12-12T12:47:23.274Z,3.10
2022-12-12T12:48:34.662Z,3.90
2022-12-12T12:50:00.538Z,2.92
2022-12-12T12:51:17.244Z,2.95
2022-12-12T12:52:39.010Z,2.97
2022-12-12T12:53:51.482Z,3.10
2022-12-12T12:54:56.864Z,4.80
2022-12-12T12:56:05.254Z,3.50
2022-12-12T12:57:28.319Z,3.15
2022-12-12T12:58:35.890Z,2.85
2022-12-12T12:59:41.796Z,3.22
2022-12-12T13:00:43.493Z,3.08
2022-12-12T13:01:49.531Z,4.10
2022-12-12T13:02:58.575Z,2.00
2022-12-12T13:04:05.165Z,4.00
2022-12-12T13:05:30.286Z,2.40
2022-12-12T13:06:59.913Z,3.42
2022-12-12T13:08:25.715Z,3.05
2022-12-12T13:09:53.357Z,4.10
2022-12-12T13:11:02.754Z,3.70
2022-12-12T13:12:19.830Z,3.40
2022-12-12T13:13:30.618Z,2.65
2022-12-12T13:14:44.172Z,2.88
2022-12-12T13:15:51.070Z,2.75
2022-12-12T13:16:54.008Z,3.85
2022-12-12T13:18:04.619Z,2.70
2022-12-12T13:19:23.314Z,3.78
2022-12-12T13:20:26.426Z,3.95
2022-12-12T13:21:42.683Z,3.83
2022-12-12T13:22:49.091Z,4.88
2022-12-12T13:23:56.362Z,2.70
2022-12-12T13:25:17.700Z,3.75
2022-12-12T13:26:28.258Z,3.20
2022-12-12T13:27:36.470Z,3.80
2022-12-12T13:28:47.560Z,4.30
2022-12-12T13:30:25.121Z,4.15
2022-12-12T13:31:44.840Z,3.42
2022-12-12T13:33:15.047Z,3.28
2022-12-12T13:34:22.263Z,4.28
2022-12-12T13:35:44.274Z,2.67
2022-12-12T13:36:49.445Z,4.00
2022-12-12T13:37:54.854Z,4.35
2022-12-12T13:38:59.093Z,3.55
2022-12-12T13:40:04.747Z,3.85
2022-12-12T13:41:09.890Z,3.20
2022-12-12T13:42:13.291Z,3.67
2022-12-12T13:43:29.516Z,3.95
2022-12-12T13:44:48.669Z,3.92
2022-12-12T13:45:51.352Z,4.07
2022-12-12T13:46:52.976Z,3.30
2022-12-12T13:47:55.285Z,5.05
2022-12-12T13:49:02.575Z,4.35
2022-12-12T13:50:20.421Z,4.50
2022-12-12T13:51:31.316Z,4.30
2022-12-12T13:52:41.537Z,3.45
2022-12-12T13:53:42.885Z,3.85
2022-12-12T13:54:46.779Z,2.88
2022-12-12T13:55:48.746Z,3.92
2022-12-12T13:56:52.822Z,3.80
2022-12-12T13:58:02.621Z,4.15
2022-12-12T13:59:27.170Z,4.20
2022-12-12T14:00:31.437Z,3.97
2022-12-12T14:01:40.907Z,5.05
2022-12-12T14:02:45.907Z,3.00
2022-12-12T14:03:47.470Z,3.90
2022-12-12T14:05:13.383Z,3.40
2022-12-12T14:06:19.800Z,3.20
2022-12-12T14:07:23.990Z,4.60
2022-12-12T14:08:33.652Z,4.32
2022-12-12T14:09:48.336Z,3.25
2022-12-12T14:10:58.963Z,4.10
2022-12-12T14:12:05.961Z,4.55
2022-12-12T14:13:16.285Z,5.63
2022-12-12T14:14:24.581Z,3.53
2022-12-12T14:15:31.823Z,3.33
2022-12-12T14:16:34.645Z,3.45
2022-12-12T14:17:42.504Z,3.38
2022-12-12T14:18:50.424Z,3.75
2022-12-12T14:19:54.456Z,3.53
2022-12-12T14:21:03.531Z,3.15
2022-12-12T14:22:05.508Z,4.95
2022-12-12T14:23:24.604Z,3.00
2022-12-12T14:24:34.904Z,4.38
2022-12-12T14:25:38.073Z,4.05
2022-12-12T14:26:39.472Z,4.90
2022-12-12T14:27:49.943Z,4.15
2022-12-12T14:29:16.269Z,4.05
2022-12-12T14:30:33.453Z,4.43
2022-12-12T14:31:40.708Z,4.60
2022-12-12T14:32:53.745Z,3.95
2022-12-12T14:34:07.393Z,4.13
2022-12-12T14:35:45.365Z,3.15
2022-12-12T14:37:21.647Z,4.30
2022-12-12T14:38:37.604Z,3.40
2022-12-12T14:39:57.970Z,3.25
2022-12-12T14:41:03.851Z,3.28
2022-12-12T14:42:08.371Z,3.95
2022-12-12T14:43:28.316Z,5.38
2022-12-12T14:44:36.656Z,3.97
2022-12-12T14:45:49.266Z,4.68
2022-12-12T14:46:50.940Z,3.92
2022-12-12T14:48:28.907Z,2.90
2022-12-12T14:49:30.368Z,3.13
2022-12-12T14:50:32.078Z,3.72
2022-12-12T14:51:36.220Z,2.95
2022-12-12T14:52:37.883Z,3.47
2022-12-12T14:53:43.540Z,4.32
2022-12-12T14:54:45.186Z,4.03
2022-12-12T14:56:15.021Z,4.47
2022-12-12T14:57:23.073Z,3.38
2022-12-12T14:58:29.377Z,4.07
2022-12-12T14:59:37.826Z,4.13
2022-12-12T15:00:51.088Z,4.50
2022-12-12T15:02:07.194Z,2.83
2022-12-12T15:03:08.801Z,3.70
2022-12-12T15:04:18.095Z,4.28
2022-12-12T15:05:19.628Z,4.18
2022-12-12T15:06:23.771Z,4.45
2022-12-12T15:07:31.086Z,2.95
2022-12-12T15:08:32.773Z,3.15
2022-12-12T15:09:39.458Z,5.15
2022-12-12T15:10:41.027Z,5.45
2022-12-12T15:11:43.565Z,2.97
2022-12-12T15:12:45.368Z,3.75